sensor_id;sensor_type;location;lat;lon;timestamp;temperature;humidity
21561;DHT22;10941;53.590;9.960;2022-10-18T00:00:19;16.40;99.90
21561;DHT22;10941;53.590;9.960;2022-10-18T00:02:45;16.40;99.90
21561;DHT22;10941;53.590;9.960;2022-10-18T00:05:11;16.40;99.90
21561;DHT22;10941;53.590;9.960;2022-10-18T00:07:37;16.30;99.90
21561;DHT22;10941;53.590;9.960;2022-10-18T00:10:03;16.40;99.90
21561;DHT22;10941;53.590;9.960;2022-10-18T00:12:31;16.30;99.90
21561;DHT22;10941;53.590;9.960;2022-10-18T00:14:56;16.40;99.90
21561;DHT22;10941;53.590;9.960;2022-10-18T00:17:22;16.40;99.90
21561;DHT22;10941;53.590;9.960;2022-10-18T00:19:48;16.40;99.90
21561;DHT22;10941;53.590;9.960;2022-10-18T00:22:14;16.30;99.90
21561;DHT22;10941;53.590;9.960;2022-10-18T00:24:43;16.40;99.90
21561;DHT22;10941;53.590;9.960;2022-10-18T00:27:24;16.30;99.90
21561;DHT22;10941;53.590;9.960;2022-10-18T00:29:52;16.40;99.90
21561;DHT22;10941;53.590;9.960;2022-10-18T00:32:18;16.30;99.90
21561;DHT22;10941;53.590;9.960;2022-10-18T00:34:44;16.30;99.90
21561;DHT22;10941;53.590;9.960;2022-10-18T00:37:12;16.30;99.90
21561;DHT22;10941;53.590;9.960;2022-10-18T00:39:38;16.30;99.90
21561;DHT22;10941;53.590;9.960;2022-10-18T00:42:03;16.30;99.90
21561;DHT22;10941;53.590;9.960;2022-10-18T00:46:56;16.30;99.90
21561;DHT22;10941;53.590;9.960;2022-10-18T00:49:41;16.30;99.90
21561;DHT22;10941;53.590;9.960;2022-10-18T00:52:10;16.30;99.90
21561;DHT22;10941;53.590;9.960;2022-10-18T00:54:39;16.30;99.90
21561;DHT22;10941;53.590;9.960;2022-10-18T00:57:06;16.30;99.90
21561;DHT22;10941;53.590;9.960;2022-10-18T00:59:32;16.30;99.90
21561;DHT22;10941;53.590;9.960;2022-10-18T01:01:59;16.30;99.90
21561;DHT22;10941;53.590;9.960;2022-10-18T01:04:25;16.30;99.90
21561;DHT22;10941;53.590;9.960;2022-10-18T01:06:56;16.20;99.90
21561;DHT22;10941;53.590;9.960;2022-10-18T01:10:07;16.20;99.90
21561;DHT22;10941;53.590;9.960;2022-10-18T01:12:18;16.20;99.90
21561;DHT22;10941;53.590;9.960;2022-10-18T01:14:49;16.20;99.90
21561;DHT22;10941;53.590;9.960;2022-10-18T01:17:18;16.20;99.90
21561;DHT22;10941;53.590;9.960;2022-10-18T01:22:32;16.20;99.90
21561;DHT22;10941;53.590;9.960;2022-10-18T01:25:19;16.20;99.90
21561;DHT22;10941;53.590;9.960;2022-10-18T01:27:53;16.20;99.90
21561;DHT22;10941;53.590;9.960;2022-10-18T01:32:58;16.10;99.90
21561;DHT22;10941;53.590;9.960;2022-10-18T01:35:26;16.10;99.90
21561;DHT22;10941;53.590;9.960;2022-10-18T01:37:55;16.10;99.90
21561;DHT22;10941;53.590;9.960;2022-10-18T01:40:22;16.10;99.90
21561;DHT22;10941;53.590;9.960;2022-10-18T01:42:49;16.10;99.90
21561;DHT22;10941;53.590;9.960;2022-10-18T01:45:15;16.10;99.90
21561;DHT22;10941;53.590;9.960;2022-10-18T01:47:42;16.10;99.90
21561;DHT22;10941;53.590;9.960;2022-10-18T01:50:09;16.00;99.90
21561;DHT22;10941;53.590;9.960;2022-10-18T01:52:35;16.00;99.90
21561;DHT22;10941;53.590;9.960;2022-10-18T01:55:01;16.10;99.90
21561;DHT22;10941;53.590;9.960;2022-10-18T01:59:58;16.00;99.90
21561;DHT22;10941;53.590;9.960;2022-10-18T02:09:59;16.00;99.90
21561;DHT22;10941;53.590;9.960;2022-10-18T02:12:28;16.00;99.90
21561;DHT22;10941;53.590;9.960;2022-10-18T02:14:57;16.00;99.90
21561;DHT22;10941;53.590;9.960;2022-10-18T02:17:24;15.90;99.90
21561;DHT22;10941;53.590;9.960;2022-10-18T02:19:52;15.90;99.90
21561;DHT22;10941;53.590;9.960;2022-10-18T02:22:20;15.90;99.90
21561;DHT22;10941;53.590;9.960;2022-10-18T02:24:50;15.90;99.90
21561;DHT22;10941;53.590;9.960;2022-10-18T02:27:17;15.90;99.90
21561;DHT22;10941;53.590;9.960;2022-10-18T02:29:43;16.00;99.90
21561;DHT22;10941;53.590;9.960;2022-10-18T02:32:11;15.90;99.90
21561;DHT22;10941;53.590;9.960;2022-10-18T02:34:42;15.90;99.90
21561;DHT22;10941;53.590;9.960;2022-10-18T02:37:08;15.90;99.90
21561;DHT22;10941;53.590;9.960;2022-10-18T02:39:36;15.90;99.90
21561;DHT22;10941;53.590;9.960;2022-10-18T02:42:05;15.90;99.90
21561;DHT22;10941;53.590;9.960;2022-10-18T02:44:32;15.90;99.90
21561;DHT22;10941;53.590;9.960;2022-10-18T02:46:57;15.90;99.90
21561;DHT22;10941;53.590;9.960;2022-10-18T02:49:23;15.90;99.90
21561;DHT22;10941;53.590;9.960;2022-10-18T02:51:49;15.90;99.90
21561;DHT22;10941;53.590;9.960;2022-10-18T02:54:15;15.90;99.90
21561;DHT22;10941;53.590;9.960;2022-10-18T02:56:41;16.00;99.90
21561;DHT22;10941;53.590;9.960;2022-10-18T02:59:06;16.00;99.90
21561;DHT22;10941;53.590;9.960;2022-10-18T03:01:33;16.00;99.90
21561;DHT22;10941;53.590;9.960;2022-10-18T03:03:58;16.00;99.90
21561;DHT22;10941;53.590;9.960;2022-10-18T03:06:24;16.00;99.90
21561;DHT22;10941;53.590;9.960;2022-10-18T03:08:50;16.00;99.90
21561;DHT22;10941;53.590;9.960;2022-10-18T03:11:15;16.00;99.90
21561;DHT22;10941;53.590;9.960;2022-10-18T03:13:41;15.90;99.90
21561;DHT22;10941;53.590;9.960;2022-10-18T03:16:06;15.90;99.90
21561;DHT22;10941;53.590;9.960;2022-10-18T03:18:32;15.90;99.90
21561;DHT22;10941;53.590;9.960;2022-10-18T03:20:58;16.00;99.90
21561;DHT22;10941;53.590;9.960;2022-10-18T03:23:23;15.90;99.90
21561;DHT22;10941;53.590;9.960;2022-10-18T03:25:49;15.90;99.90
21561;DHT22;10941;53.590;9.960;2022-10-18T03:28:14;15.90;99.90
21561;DHT22;10941;53.590;9.960;2022-10-18T03:30:40;16.00;99.90
21561;DHT22;10941;53.590;9.960;2022-10-18T03:33:06;16.00;99.90
21561;DHT22;10941;53.590;9.960;2022-10-18T03:35:31;16.00;99.90
21561;DHT22;10941;53.590;9.960;2022-10-18T03:37:57;16.00;99.90
21561;DHT22;10941;53.590;9.960;2022-10-18T03:40:22;15.90;99.90
21561;DHT22;10941;53.590;9.960;2022-10-18T03:42:48;15.90;99.90
21561;DHT22;10941;53.590;9.960;2022-10-18T03:45:14;15.90;99.90
21561;DHT22;10941;53.590;9.960;2022-10-18T03:47:39;15.90;99.90
21561;DHT22;10941;53.590;9.960;2022-10-18T03:50:07;15.90;99.90
21561;DHT22;10941;53.590;9.960;2022-10-18T03:52:33;15.90;99.90
21561;DHT22;10941;53.590;9.960;2022-10-18T03:54:58;15.80;99.90
21561;DHT22;10941;53.590;9.960;2022-10-18T03:57:24;15.80;99.90
21561;DHT22;10941;53.590;9.960;2022-10-18T03:59:49;15.80;99.90
21561;DHT22;10941;53.590;9.960;2022-10-18T04:02:15;15.80;99.90
21561;DHT22;10941;53.590;9.960;2022-10-18T04:04:43;15.80;99.90
21561;DHT22;10941;53.590;9.960;2022-10-18T04:07:08;15.80;99.90
21561;DHT22;10941;53.590;9.960;2022-10-18T04:09:34;15.80;99.90
21561;DHT22;10941;53.590;9.960;2022-10-18T04:11:59;15.80;99.90
21561;DHT22;10941;53.590;9.960;2022-10-18T04:14:25;15.70;99.90
21561;DHT22;10941;53.590;9.960;2022-10-18T04:16:50;15.80;99.90
21561;DHT22;10941;53.590;9.960;2022-10-18T04:19:16;15.70;99.90
21561;DHT22;10941;53.590;9.960;2022-10-18T04:21:42;15.70;99.90
21561;DHT22;10941;53.590;9.960;2022-10-18T04:24:07;15.70;99.90
21561;DHT22;10941;53.590;9.960;2022-10-18T04:26:33;15.70;99.90
21561;DHT22;10941;53.590;9.960;2022-10-18T04:28:58;15.70;99.90
21561;DHT22;10941;53.590;9.960;2022-10-18T04:31:24;15.60;99.90
21561;DHT22;10941;53.590;9.960;2022-10-18T04:33:50;15.60;99.90
21561;DHT22;10941;53.590;9.960;2022-10-18T04:36:16;15.60;99.90
21561;DHT22;10941;53.590;9.960;2022-10-18T04:38:41;15.60;99.90
21561;DHT22;10941;53.590;9.960;2022-10-18T04:41:07;15.60;99.90
21561;DHT22;10941;53.590;9.960;2022-10-18T04:43:33;15.70;99.90
21561;DHT22;10941;53.590;9.960;2022-10-18T04:45:58;15.70;99.90
21561;DHT22;10941;53.590;9.960;2022-10-18T04:48:27;15.70;99.90
21561;DHT22;10941;53.590;9.960;2022-10-18T04:50:52;15.70;99.90
21561;DHT22;10941;53.590;9.960;2022-10-18T04:53:18;15.60;99.90
21561;DHT22;10941;53.590;9.960;2022-10-18T04:55:47;15.70;99.90
21561;DHT22;10941;53.590;9.960;2022-10-18T04:58:13;15.70;99.90
21561;DHT22;10941;53.590;9.960;2022-10-18T05:00:39;15.70;99.90
21561;DHT22;10941;53.590;9.960;2022-10-18T05:03:05;15.70;99.90
21561;DHT22;10941;53.590;9.960;2022-10-18T05:05:31;15.70;99.90
21561;DHT22;10941;53.590;9.960;2022-10-18T05:07:57;15.70;99.90
21561;DHT22;10941;53.590;9.960;2022-10-18T05:10:22;15.70;99.90
21561;DHT22;10941;53.590;9.960;2022-10-18T05:12:48;15.70;99.90
21561;DHT22;10941;53.590;9.960;2022-10-18T05:15:13;15.70;99.90
21561;DHT22;10941;53.590;9.960;2022-10-18T05:17:39;15.70;99.90
21561;DHT22;10941;53.590;9.960;2022-10-18T05:20:05;15.70;99.90
21561;DHT22;10941;53.590;9.960;2022-10-18T05:22:31;15.70;99.90
21561;DHT22;10941;53.590;9.960;2022-10-18T05:24:56;15.70;99.90
21561;DHT22;10941;53.590;9.960;2022-10-18T05:27:22;15.70;99.90
21561;DHT22;10941;53.590;9.960;2022-10-18T05:29:48;15.70;99.90
21561;DHT22;10941;53.590;9.960;2022-10-18T05:32:15;15.70;99.90
21561;DHT22;10941;53.590;9.960;2022-10-18T05:34:41;15.70;99.90
21561;DHT22;10941;53.590;9.960;2022-10-18T05:37:06;15.80;99.90
21561;DHT22;10941;53.590;9.960;2022-10-18T05:39:32;15.80;99.90
21561;DHT22;10941;53.590;9.960;2022-10-18T05:41:58;15.70;99.90
21561;DHT22;10941;53.590;9.960;2022-10-18T05:44:24;15.70;99.90
21561;DHT22;10941;53.590;9.960;2022-10-18T05:46:52;15.70;99.90
21561;DHT22;10941;53.590;9.960;2022-10-18T05:49:17;15.70;99.90
21561;DHT22;10941;53.590;9.960;2022-10-18T05:51:43;15.70;99.90
21561;DHT22;10941;53.590;9.960;2022-10-18T05:54:10;15.70;99.90
21561;DHT22;10941;53.590;9.960;2022-10-18T05:56:35;15.70;99.90
21561;DHT22;10941;53.590;9.960;2022-10-18T05:59:02;15.80;99.90
21561;DHT22;10941;53.590;9.960;2022-10-18T06:01:29;15.80;99.90
21561;DHT22;10941;53.590;9.960;2022-10-18T06:03:55;15.80;99.90
21561;DHT22;10941;53.590;9.960;2022-10-18T06:06:21;15.80;99.90
21561;DHT22;10941;53.590;9.960;2022-10-18T06:08:47;15.80;99.90
21561;DHT22;10941;53.590;9.960;2022-10-18T06:11:14;15.70;99.90
21561;DHT22;10941;53.590;9.960;2022-10-18T06:13:43;15.70;99.90
21561;DHT22;10941;53.590;9.960;2022-10-18T06:16:10;15.80;99.90
21561;DHT22;10941;53.590;9.960;2022-10-18T06:18:36;15.70;99.90
21561;DHT22;10941;53.590;9.960;2022-10-18T06:21:02;15.70;99.90
21561;DHT22;10941;53.590;9.960;2022-10-18T06:23:28;15.70;99.90
21561;DHT22;10941;53.590;9.960;2022-10-18T06:25:57;15.70;99.90
21561;DHT22;10941;53.590;9.960;2022-10-18T06:28:23;15.70;99.90
21561;DHT22;10941;53.590;9.960;2022-10-18T06:30:49;15.70;99.90
21561;DHT22;10941;53.590;9.960;2022-10-18T06:33:14;15.70;99.90
21561;DHT22;10941;53.590;9.960;2022-10-18T06:35:40;15.70;99.90
21561;DHT22;10941;53.590;9.960;2022-10-18T06:38:06;15.70;99.90
21561;DHT22;10941;53.590;9.960;2022-10-18T06:40:31;15.70;99.90
21561;DHT22;10941;53.590;9.960;2022-10-18T06:43:05;15.80;99.90
21561;DHT22;10941;53.590;9.960;2022-10-18T06:45:33;15.80;99.90
21561;DHT22;10941;53.590;9.960;2022-10-18T06:47:59;15.70;99.90
21561;DHT22;10941;53.590;9.960;2022-10-18T06:50:25;15.70;99.90
21561;DHT22;10941;53.590;9.960;2022-10-18T06:52:51;15.80;99.90
21561;DHT22;10941;53.590;9.960;2022-10-18T06:55:16;15.80;99.90
21561;DHT22;10941;53.590;9.960;2022-10-18T06:57:42;15.80;99.90
21561;DHT22;10941;53.590;9.960;2022-10-18T07:00:10;15.80;99.90
21561;DHT22;10941;53.590;9.960;2022-10-18T07:02:36;15.80;99.90
21561;DHT22;10941;53.590;9.960;2022-10-18T07:05:09;15.80;99.90
21561;DHT22;10941;53.590;9.960;2022-10-18T07:07:34;15.80;99.90
21561;DHT22;10941;53.590;9.960;2022-10-18T07:10:00;15.80;99.90
21561;DHT22;10941;53.590;9.960;2022-10-18T07:12:25;15.80;99.90
21561;DHT22;10941;53.590;9.960;2022-10-18T07:14:51;15.80;99.90
21561;DHT22;10941;53.590;9.960;2022-10-18T07:17:17;15.90;99.90
21561;DHT22;10941;53.590;9.960;2022-10-18T07:19:42;15.90;99.90
21561;DHT22;10941;53.590;9.960;2022-10-18T07:22:08;15.90;99.90
21561;DHT22;10941;53.590;9.960;2022-10-18T07:24:33;15.90;99.90
21561;DHT22;10941;53.590;9.960;2022-10-18T07:26:59;15.90;99.90
21561;DHT22;10941;53.590;9.960;2022-10-18T07:29:25;16.00;99.90
21561;DHT22;10941;53.590;9.960;2022-10-18T07:31:50;15.90;99.90
21561;DHT22;10941;53.590;9.960;2022-10-18T07:34:16;15.90;99.90
21561;DHT22;10941;53.590;9.960;2022-10-18T07:36:41;16.00;99.90
21561;DHT22;10941;53.590;9.960;2022-10-18T07:39:07;16.00;99.90
21561;DHT22;10941;53.590;9.960;2022-10-18T07:41:33;16.00;99.90
21561;DHT22;10941;53.590;9.960;2022-10-18T07:43:59;16.00;99.90
21561;DHT22;10941;53.590;9.960;2022-10-18T07:46:25;16.00;99.90
21561;DHT22;10941;53.590;9.960;2022-10-18T07:48:51;16.00;99.90
21561;DHT22;10941;53.590;9.960;2022-10-18T07:51:17;16.00;99.90
21561;DHT22;10941;53.590;9.960;2022-10-18T07:53:43;16.00;99.90
21561;DHT22;10941;53.590;9.960;2022-10-18T07:56:10;16.00;99.90
21561;DHT22;10941;53.590;9.960;2022-10-18T07:58:41;16.00;99.90
21561;DHT22;10941;53.590;9.960;2022-10-18T08:01:07;16.00;99.90
21561;DHT22;10941;53.590;9.960;2022-10-18T08:03:33;16.00;99.90
21561;DHT22;10941;53.590;9.960;2022-10-18T08:05:59;16.00;99.90
21561;DHT22;10941;53.590;9.960;2022-10-18T08:08:26;16.00;99.90
21561;DHT22;10941;53.590;9.960;2022-10-18T08:10:52;16.00;99.90
21561;DHT22;10941;53.590;9.960;2022-10-18T08:13:20;16.00;99.90
21561;DHT22;10941;53.590;9.960;2022-10-18T08:15:46;16.10;99.90
21561;DHT22;10941;53.590;9.960;2022-10-18T08:18:11;16.10;99.90
21561;DHT22;10941;53.590;9.960;2022-10-18T08:20:41;16.10;99.90
21561;DHT22;10941;53.590;9.960;2022-10-18T08:23:06;16.10;99.90
21561;DHT22;10941;53.590;9.960;2022-10-18T08:25:33;16.10;99.90
21561;DHT22;10941;53.590;9.960;2022-10-18T08:27:58;16.00;99.90
21561;DHT22;10941;53.590;9.960;2022-10-18T08:30:25;16.10;99.90
21561;DHT22;10941;53.590;9.960;2022-10-18T08:32:51;16.00;99.90
21561;DHT22;10941;53.590;9.960;2022-10-18T08:35:17;16.10;99.90
21561;DHT22;10941;53.590;9.960;2022-10-18T08:37:42;16.10;99.90
21561;DHT22;10941;53.590;9.960;2022-10-18T08:40:11;16.10;99.90
21561;DHT22;10941;53.590;9.960;2022-10-18T08:42:44;16.10;99.90
21561;DHT22;10941;53.590;9.960;2022-10-18T08:45:13;16.10;99.90
21561;DHT22;10941;53.590;9.960;2022-10-18T08:47:43;16.20;99.90
21561;DHT22;10941;53.590;9.960;2022-10-18T08:50:12;16.20;99.90
21561;DHT22;10941;53.590;9.960;2022-10-18T08:57:45;16.20;99.90
21561;DHT22;10941;53.590;9.960;2022-10-18T09:00:15;16.30;99.90
21561;DHT22;10941;53.590;9.960;2022-10-18T09:05:38;16.30;99.90
21561;DHT22;10941;53.590;9.960;2022-10-18T09:08:14;16.20;99.90
21561;DHT22;10941;53.590;9.960;2022-10-18T09:13:16;16.20;99.90
21561;DHT22;10941;53.590;9.960;2022-10-18T09:15:50;16.20;99.90
21561;DHT22;10941;53.590;9.960;2022-10-18T09:18:30;16.20;99.90
21561;DHT22;10941;53.590;9.960;2022-10-18T09:21:07;16.20;99.90
21561;DHT22;10941;53.590;9.960;2022-10-18T09:23:45;16.20;99.90
21561;DHT22;10941;53.590;9.960;2022-10-18T09:26:15;16.20;99.90
21561;DHT22;10941;53.590;9.960;2022-10-18T09:31:55;16.10;99.90
21561;DHT22;10941;53.590;9.960;2022-10-18T09:34:25;16.20;99.90
21561;DHT22;10941;53.590;9.960;2022-10-18T09:36:53;16.20;99.90
21561;DHT22;10941;53.590;9.960;2022-10-18T09:39:22;16.30;99.90
21561;DHT22;10941;53.590;9.960;2022-10-18T09:41:53;16.30;99.90
21561;DHT22;10941;53.590;9.960;2022-10-18T09:46:54;16.40;99.90
21561;DHT22;10941;53.590;9.960;2022-10-18T09:49:40;16.40;99.90
21561;DHT22;10941;53.590;9.960;2022-10-18T09:52:07;16.50;99.90
21561;DHT22;10941;53.590;9.960;2022-10-18T09:54:42;16.50;99.90
21561;DHT22;10941;53.590;9.960;2022-10-18T09:57:10;16.60;99.90
21561;DHT22;10941;53.590;9.960;2022-10-18T09:59:39;16.60;99.90
21561;DHT22;10941;53.590;9.960;2022-10-18T10:02:05;16.70;99.90
21561;DHT22;10941;53.590;9.960;2022-10-18T10:04:31;16.70;99.90
21561;DHT22;10941;53.590;9.960;2022-10-18T10:06:58;16.70;99.90
21561;DHT22;10941;53.590;9.960;2022-10-18T10:09:30;16.70;99.90
21561;DHT22;10941;53.590;9.960;2022-10-18T10:12:00;16.70;99.90
21561;DHT22;10941;53.590;9.960;2022-10-18T10:14:27;16.70;99.90
21561;DHT22;10941;53.590;9.960;2022-10-18T10:16:56;16.70;99.90
21561;DHT22;10941;53.590;9.960;2022-10-18T10:21:48;16.80;99.90
21561;DHT22;10941;53.590;9.960;2022-10-18T10:27:14;16.80;99.90
21561;DHT22;10941;53.590;9.960;2022-10-18T10:32:11;16.80;99.90
21561;DHT22;10941;53.590;9.960;2022-10-18T10:34:36;16.80;99.90
21561;DHT22;10941;53.590;9.960;2022-10-18T10:37:02;16.80;99.90
21561;DHT22;10941;53.590;9.960;2022-10-18T10:39:29;16.80;99.90
21561;DHT22;10941;53.590;9.960;2022-10-18T10:41:55;16.80;99.90
21561;DHT22;10941;53.590;9.960;2022-10-18T10:44:24;16.80;99.90
21561;DHT22;10941;53.590;9.960;2022-10-18T10:46:51;16.80;99.90
21561;DHT22;10941;53.590;9.960;2022-10-18T10:49:18;16.80;99.90
21561;DHT22;10941;53.590;9.960;2022-10-18T10:51:45;16.70;99.90
21561;DHT22;10941;53.590;9.960;2022-10-18T10:57:00;16.70;99.90
21561;DHT22;10941;53.590;9.960;2022-10-18T10:59:25;16.70;99.90
21561;DHT22;10941;53.590;9.960;2022-10-18T11:02:15;16.70;99.90
21561;DHT22;10941;53.590;9.960;2022-10-18T11:04:51;16.70;99.90
21561;DHT22;10941;53.590;9.960;2022-10-18T11:12:46;16.60;99.90
21561;DHT22;10941;53.590;9.960;2022-10-18T11:15:17;16.60;99.90
21561;DHT22;10941;53.590;9.960;2022-10-18T11:20:34;16.60;99.90
21561;DHT22;10941;53.590;9.960;2022-10-18T11:23:02;16.60;99.90
21561;DHT22;10941;53.590;9.960;2022-10-18T11:25:38;16.60;99.90
21561;DHT22;10941;53.590;9.960;2022-10-18T11:30:59;16.50;99.90
21561;DHT22;10941;53.590;9.960;2022-10-18T11:36:21;16.50;99.90
21561;DHT22;10941;53.590;9.960;2022-10-18T11:38:52;16.60;99.90
21561;DHT22;10941;53.590;9.960;2022-10-18T11:46:52;16.60;99.90
21561;DHT22;10941;53.590;9.960;2022-10-18T11:54:51;16.40;99.90
21561;DHT22;10941;53.590;9.960;2022-10-18T11:59:51;16.30;99.90
21561;DHT22;10941;53.590;9.960;2022-10-18T12:04:59;16.30;99.90
21561;DHT22;10941;53.590;9.960;2022-10-18T12:07:25;16.30;99.90
21561;DHT22;10941;53.590;9.960;2022-10-18T12:09:55;16.30;99.90
21561;DHT22;10941;53.590;9.960;2022-10-18T12:14:48;16.30;99.90
21561;DHT22;10941;53.590;9.960;2022-10-18T12:17:19;16.30;99.90
21561;DHT22;10941;53.590;9.960;2022-10-18T12:19:47;16.30;99.90
21561;DHT22;10941;53.590;9.960;2022-10-18T12:22:19;16.20;99.90
21561;DHT22;10941;53.590;9.960;2022-10-18T12:24:45;16.20;99.90
21561;DHT22;10941;53.590;9.960;2022-10-18T12:27:12;16.20;99.90
21561;DHT22;10941;53.590;9.960;2022-10-18T12:32:12;16.10;99.90
21561;DHT22;10941;53.590;9.960;2022-10-18T12:34:45;16.10;99.90
21561;DHT22;10941;53.590;9.960;2022-10-18T12:39:45;16.10;99.90
21561;DHT22;10941;53.590;9.960;2022-10-18T12:42:26;16.10;99.90
21561;DHT22;10941;53.590;9.960;2022-10-18T12:45:00;16.10;99.90
21561;DHT22;10941;53.590;9.960;2022-10-18T12:47:27;16.10;99.90
21561;DHT22;10941;53.590;9.960;2022-10-18T12:52:44;16.10;99.90
21561;DHT22;10941;53.590;9.960;2022-10-18T13:05:47;16.00;99.90
21561;DHT22;10941;53.590;9.960;2022-10-18T13:13:44;15.90;99.90
21561;DHT22;10941;53.590;9.960;2022-10-18T13:18:51;16.00;99.90
21561;DHT22;10941;53.590;9.960;2022-10-18T13:21:31;16.00;99.90
21561;DHT22;10941;53.590;9.960;2022-10-18T13:29:00;16.00;99.90
21561;DHT22;10941;53.590;9.960;2022-10-18T13:31:40;15.90;99.90
21561;DHT22;10941;53.590;9.960;2022-10-18T13:34:21;16.00;99.90
21561;DHT22;10941;53.590;9.960;2022-10-18T13:36:59;15.90;99.90
21561;DHT22;10941;53.590;9.960;2022-10-18T13:39:25;15.90;99.90
21561;DHT22;10941;53.590;9.960;2022-10-18T13:44:24;15.90;99.90
21561;DHT22;10941;53.590;9.960;2022-10-18T14:02:17;15.70;99.90
21561;DHT22;10941;53.590;9.960;2022-10-18T14:04:58;15.70;99.90
21561;DHT22;10941;53.590;9.960;2022-10-18T14:07:29;15.70;99.90
21561;DHT22;10941;53.590;9.960;2022-10-18T14:09:56;15.70;99.90
21561;DHT22;10941;53.590;9.960;2022-10-18T14:13:05;15.70;99.90
21561;DHT22;10941;53.590;9.960;2022-10-18T14:15:14;15.70;99.90
21561;DHT22;10941;53.590;9.960;2022-10-18T14:25:17;15.80;99.90
21561;DHT22;10941;53.590;9.960;2022-10-18T14:27:43;15.80;99.90
21561;DHT22;10941;53.590;9.960;2022-10-18T14:30:16;15.80;99.90
21561;DHT22;10941;53.590;9.960;2022-10-18T14:32:43;15.80;99.90
21561;DHT22;10941;53.590;9.960;2022-10-18T14:35:19;15.90;99.90
21561;DHT22;10941;53.590;9.960;2022-10-18T14:37:49;15.90;99.90
21561;DHT22;10941;53.590;9.960;2022-10-18T14:40:32;15.80;99.90
21561;DHT22;10941;53.590;9.960;2022-10-18T14:43:17;15.80;99.90
21561;DHT22;10941;53.590;9.960;2022-10-18T14:45:43;15.80;99.90
21561;DHT22;10941;53.590;9.960;2022-10-18T14:48:22;15.90;99.90
21561;DHT22;10941;53.590;9.960;2022-10-18T14:50:53;15.90;99.90
21561;DHT22;10941;53.590;9.960;2022-10-18T14:53:23;15.90;99.90
21561;DHT22;10941;53.590;9.960;2022-10-18T14:55:59;16.00;99.90
21561;DHT22;10941;53.590;9.960;2022-10-18T14:58:25;16.00;99.90
21561;DHT22;10941;53.590;9.960;2022-10-18T15:00:51;16.00;99.90
21561;DHT22;10941;53.590;9.960;2022-10-18T15:03:17;16.00;99.90
21561;DHT22;10941;53.590;9.960;2022-10-18T15:05:57;16.00;99.90
21561;DHT22;10941;53.590;9.960;2022-10-18T15:08:25;16.00;99.90
21561;DHT22;10941;53.590;9.960;2022-10-18T15:10:51;16.00;99.90
21561;DHT22;10941;53.590;9.960;2022-10-18T15:13:16;16.00;99.90
21561;DHT22;10941;53.590;9.960;2022-10-18T15:15:43;16.00;99.90
21561;DHT22;10941;53.590;9.960;2022-10-18T15:18:18;16.00;99.90
21561;DHT22;10941;53.590;9.960;2022-10-18T15:20:44;15.90;99.90
21561;DHT22;10941;53.590;9.960;2022-10-18T15:25:48;15.90;99.90
21561;DHT22;10941;53.590;9.960;2022-10-18T15:28:28;15.90;99.90
21561;DHT22;10941;53.590;9.960;2022-10-18T15:30:54;15.80;99.90
21561;DHT22;10941;53.590;9.960;2022-10-18T15:33:23;15.80;99.90
21561;DHT22;10941;53.590;9.960;2022-10-18T15:35:48;15.80;99.90
21561;DHT22;10941;53.590;9.960;2022-10-18T15:38:21;15.80;99.90
21561;DHT22;10941;53.590;9.960;2022-10-18T15:40:48;15.80;99.90
21561;DHT22;10941;53.590;9.960;2022-10-18T15:45:49;15.80;99.90
21561;DHT22;10941;53.590;9.960;2022-10-18T15:48:18;15.80;99.90
21561;DHT22;10941;53.590;9.960;2022-10-18T15:50:46;15.70;99.90
21561;DHT22;10941;53.590;9.960;2022-10-18T15:58:24;15.70;99.90
21561;DHT22;10941;53.590;9.960;2022-10-18T16:00:50;15.70;99.90
21561;DHT22;10941;53.590;9.960;2022-10-18T16:03:17;15.70;99.90
21561;DHT22;10941;53.590;9.960;2022-10-18T16:05:43;15.70;99.90
21561;DHT22;10941;53.590;9.960;2022-10-18T16:08:20;15.70;99.90
21561;DHT22;10941;53.590;9.960;2022-10-18T16:10:46;15.70;99.90
21561;DHT22;10941;53.590;9.960;2022-10-18T16:13:12;15.70;99.90
21561;DHT22;10941;53.590;9.960;2022-10-18T16:15:37;15.70;99.90
21561;DHT22;10941;53.590;9.960;2022-10-18T16:18:04;15.70;99.90
21561;DHT22;10941;53.590;9.960;2022-10-18T16:20:29;15.70;99.90
21561;DHT22;10941;53.590;9.960;2022-10-18T16:22:55;15.70;99.90
21561;DHT22;10941;53.590;9.960;2022-10-18T16:25:21;15.70;99.90
21561;DHT22;10941;53.590;9.960;2022-10-18T16:27:46;15.70;99.90
21561;DHT22;10941;53.590;9.960;2022-10-18T16:30:16;15.70;99.90
21561;DHT22;10941;53.590;9.960;2022-10-18T16:32:43;15.70;99.90
21561;DHT22;10941;53.590;9.960;2022-10-18T16:35:09;15.70;99.90
21561;DHT22;10941;53.590;9.960;2022-10-18T16:37:37;15.60;99.90
21561;DHT22;10941;53.590;9.960;2022-10-18T16:40:37;15.60;99.90
21561;DHT22;10941;53.590;9.960;2022-10-18T16:42:55;15.50;99.90
21561;DHT22;10941;53.590;9.960;2022-10-18T16:45:21;15.50;99.90
21561;DHT22;10941;53.590;9.960;2022-10-18T16:47:48;15.50;99.90
21561;DHT22;10941;53.590;9.960;2022-10-18T16:50:15;15.50;99.90
21561;DHT22;10941;53.590;9.960;2022-10-18T16:52:42;15.50;99.90
21561;DHT22;10941;53.590;9.960;2022-10-18T16:55:08;15.50;99.90
21561;DHT22;10941;53.590;9.960;2022-10-18T16:57:41;15.60;99.90
21561;DHT22;10941;53.590;9.960;2022-10-18T17:00:11;15.60;99.90
21561;DHT22;10941;53.590;9.960;2022-10-18T17:02:39;15.60;99.90
21561;DHT22;10941;53.590;9.960;2022-10-18T17:05:05;15.60;99.90
21561;DHT22;10941;53.590;9.960;2022-10-18T17:07:31;15.50;99.90
21561;DHT22;10941;53.590;9.960;2022-10-18T17:09:56;15.50;99.90
21561;DHT22;10941;53.590;9.960;2022-10-18T17:12:22;15.60;99.90
21561;DHT22;10941;53.590;9.960;2022-10-18T17:14:47;15.60;99.90
21561;DHT22;10941;53.590;9.960;2022-10-18T17:17:13;15.60;99.90
21561;DHT22;10941;53.590;9.960;2022-10-18T17:19:38;15.60;99.90
21561;DHT22;10941;53.590;9.960;2022-10-18T17:22:04;15.60;99.90
21561;DHT22;10941;53.590;9.960;2022-10-18T17:24:30;15.60;99.90
21561;DHT22;10941;53.590;9.960;2022-10-18T17:26:55;15.60;99.90
21561;DHT22;10941;53.590;9.960;2022-10-18T17:29:21;15.60;99.90
21561;DHT22;10941;53.590;9.960;2022-10-18T17:31:48;15.70;99.90
21561;DHT22;10941;53.590;9.960;2022-10-18T17:34:14;15.60;99.90
21561;DHT22;10941;53.590;9.960;2022-10-18T17:36:43;15.60;99.90
21561;DHT22;10941;53.590;9.960;2022-10-18T17:39:09;15.60;99.90
21561;DHT22;10941;53.590;9.960;2022-10-18T17:41:34;15.70;99.90
21561;DHT22;10941;53.590;9.960;2022-10-18T17:44:03;15.70;99.90
21561;DHT22;10941;53.590;9.960;2022-10-18T17:46:29;15.70;99.90
21561;DHT22;10941;53.590;9.960;2022-10-18T17:48:55;15.70;99.90
21561;DHT22;10941;53.590;9.960;2022-10-18T17:51:21;15.70;99.90
21561;DHT22;10941;53.590;9.960;2022-10-18T17:53:46;15.70;99.90
21561;DHT22;10941;53.590;9.960;2022-10-18T17:56:12;15.70;99.90
21561;DHT22;10941;53.590;9.960;2022-10-18T17:58:38;15.70;99.90